createdAt,value
2018-12-06T00:01:40.970Z,17.07
2018-12-06T00:04:09.939Z,17.48
2018-12-06T00:06:38.662Z,12.40
2018-12-06T00:09:07.650Z,16.42
2018-12-06T00:11:36.449Z,16.05
2018-12-06T00:14:05.112Z,14.18
2018-12-06T00:16:33.799Z,15.08
2018-12-06T00:19:08.102Z,11.78
2018-12-06T00:21:37.006Z,16.60
2018-12-06T00:24:05.740Z,25.30
2018-12-06T00:26:34.493Z,14.75
2018-12-06T00:29:03.219Z,14.55
2018-12-06T00:31:31.934Z,19.75
2018-12-06T00:34:00.702Z,17.60
2018-12-06T00:36:29.424Z,13.48
2018-12-06T00:38:58.172Z,15.50
2018-12-06T00:41:26.851Z,13.68
2018-12-06T00:43:55.569Z,17.85
2018-12-06T00:46:24.329Z,14.38
2018-12-06T00:48:53.011Z,13.10
2018-12-06T00:51:21.734Z,11.33
2018-12-06T00:53:50.435Z,16.40
2018-12-06T00:56:19.117Z,12.47
2018-12-06T00:58:47.828Z,13.75
2018-12-06T01:01:16.539Z,14.30
2018-12-06T01:03:45.284Z,15.63
2018-12-06T01:06:13.974Z,18.82
2018-12-06T01:08:42.671Z,13.15
2018-12-06T01:11:11.383Z,12.90
2018-12-06T01:13:40.090Z,17.30
2018-12-06T01:16:08.866Z,12.82
2018-12-06T01:18:37.550Z,17.62
2018-12-06T01:21:06.265Z,12.35
2018-12-06T01:23:34.938Z,14.78
2018-12-06T01:26:03.609Z,15.35
2018-12-06T01:28:32.328Z,19.35
2018-12-06T01:31:01.015Z,13.70
2018-12-06T01:33:29.695Z,14.53
2018-12-06T01:35:58.385Z,15.85
2018-12-06T01:38:27.133Z,16.77
2018-12-06T01:40:55.825Z,13.58
2018-12-06T01:43:24.543Z,18.27
2018-12-06T01:45:53.208Z,14.47
2018-12-06T01:48:22.142Z,13.03
2018-12-06T01:50:50.848Z,14.45
2018-12-06T01:53:19.512Z,17.85
2018-12-06T01:55:48.209Z,14.50
2018-12-06T01:58:16.871Z,16.12
2018-12-06T02:00:45.538Z,13.72
2018-12-06T02:03:14.210Z,13.05
2018-12-06T02:05:42.954Z,13.55
2018-12-06T02:08:11.620Z,13.15
2018-12-06T02:10:40.431Z,15.60
2018-12-06T02:13:09.361Z,12.60
2018-12-06T02:15:38.035Z,14.78
2018-12-06T02:18:06.726Z,16.00
2018-12-06T02:20:35.507Z,14.87
2018-12-06T02:23:04.202Z,14.85
2018-12-06T02:25:32.898Z,12.37
2018-12-06T02:28:01.594Z,14.23
2018-12-06T02:30:30.309Z,13.00
2018-12-06T02:32:59.240Z,14.63
2018-12-06T02:35:27.929Z,18.23
2018-12-06T02:37:56.694Z,12.80
2018-12-06T02:40:25.402Z,12.50
2018-12-06T02:42:54.143Z,16.90
2018-12-06T02:45:22.857Z,13.55
2018-12-06T02:47:52.639Z,14.07
2018-12-06T02:50:21.433Z,18.40
2018-12-06T02:52:51.096Z,13.08
2018-12-06T02:55:20.458Z,12.28
2018-12-06T02:57:49.224Z,12.98
2018-12-06T03:00:17.923Z,15.10
2018-12-06T03:02:46.649Z,17.87
2018-12-06T03:05:15.324Z,16.37
2018-12-06T03:07:44.056Z,11.60
2018-12-06T03:10:12.720Z,21.52
2018-12-06T03:12:41.441Z,15.58
2018-12-06T03:15:10.260Z,13.28
2018-12-06T03:17:38.976Z,16.65
2018-12-06T03:20:08.364Z,11.53
2018-12-06T03:22:37.081Z,14.73
2018-12-06T03:25:06.319Z,15.08
2018-12-06T03:27:35.011Z,9.98
2018-12-06T03:30:04.337Z,13.10
2018-12-06T03:32:33.265Z,12.70
2018-12-06T03:35:01.958Z,12.90
2018-12-06T03:37:30.653Z,10.60
2018-12-06T03:39:59.385Z,13.68
2018-12-06T03:42:28.085Z,13.00
2018-12-06T03:44:56.786Z,11.80
2018-12-06T03:47:25.447Z,11.30
2018-12-06T03:49:54.152Z,10.63
2018-12-06T03:52:22.845Z,11.35
2018-12-06T03:54:51.541Z,10.68
2018-12-06T03:57:20.227Z,11.38
2018-12-06T03:59:51.045Z,12.80
2018-12-06T04:02:19.715Z,11.25
2018-12-06T04:04:48.390Z,13.58
2018-12-06T04:07:17.071Z,11.90
2018-12-06T04:09:45.781Z,10.25
2018-12-06T04:12:14.560Z,8.48
2018-12-06T04:14:43.220Z,14.05
2018-12-06T04:17:11.929Z,13.30
2018-12-06T04:19:40.824Z,8.95
2018-12-06T04:22:09.515Z,12.10
2018-12-06T04:24:38.307Z,10.32
2018-12-06T04:27:07.742Z,10.18
2018-12-06T04:29:36.412Z,13.05
2018-12-06T04:32:05.095Z,9.10
2018-12-06T04:34:33.791Z,12.03
2018-12-06T04:37:02.962Z,8.25
2018-12-06T04:39:31.675Z,13.75
2018-12-06T04:42:00.400Z,28.67
2018-12-06T04:44:29.101Z,12.93
2018-12-06T04:46:57.833Z,11.18
2018-12-06T04:49:27.055Z,8.10
2018-12-06T04:51:55.756Z,15.65
2018-12-06T04:54:24.500Z,9.63
2018-12-06T04:56:53.195Z,9.35
2018-12-06T04:59:21.910Z,10.72
2018-12-06T05:01:50.615Z,8.55
2018-12-06T05:04:19.339Z,13.35
2018-12-06T05:06:48.199Z,8.68
2018-12-06T05:09:16.905Z,11.63
2018-12-06T05:11:45.687Z,10.25
2018-12-06T05:14:14.578Z,13.08
2018-12-06T05:16:44.492Z,9.78
2018-12-06T05:19:13.669Z,9.98
2018-12-06T05:21:42.806Z,13.35
2018-12-06T05:24:11.658Z,8.85
2018-12-06T05:26:41.330Z,5.90
2018-12-06T05:29:10.262Z,9.73
2018-12-06T05:31:38.981Z,8.48
2018-12-06T05:34:07.719Z,9.88
2018-12-06T05:36:36.580Z,12.58
2018-12-06T05:39:06.806Z,12.03
2018-12-06T05:41:35.479Z,8.58
2018-12-06T05:44:04.238Z,11.97
2018-12-06T05:46:32.961Z,10.10
2018-12-06T05:49:01.688Z,13.40
2018-12-06T05:51:30.467Z,11.38
2018-12-06T05:53:59.216Z,8.75
2018-12-06T05:56:28.223Z,7.95
2018-12-06T05:58:56.964Z,7.78
2018-12-06T06:01:25.660Z,10.35
2018-12-06T06:03:54.362Z,11.22
2018-12-06T06:06:23.079Z,9.78
2018-12-06T06:08:51.643Z,11.30
2018-12-06T06:11:20.419Z,12.05
2018-12-06T06:13:49.226Z,11.05
2018-12-06T06:16:17.944Z,10.63
2018-12-06T06:18:46.610Z,10.15
2018-12-06T06:21:15.386Z,11.63
2018-12-06T06:23:44.106Z,9.58
2018-12-06T06:26:12.915Z,7.78
2018-12-06T06:28:41.645Z,10.20
2018-12-06T06:31:10.399Z,10.00
2018-12-06T06:33:39.115Z,10.13
2018-12-06T06:36:07.810Z,9.63
2018-12-06T06:38:36.484Z,11.45
2018-12-06T06:41:05.203Z,7.92
2018-12-06T06:43:33.883Z,10.63
2018-12-06T06:46:02.625Z,9.50
2018-12-06T06:48:31.587Z,11.15
2018-12-06T06:51:00.290Z,10.08
2018-12-06T06:53:29.010Z,10.00
2018-12-06T06:55:57.796Z,11.97
2018-12-06T06:58:26.472Z,8.85
2018-12-06T07:00:55.213Z,16.80
2018-12-06T07:03:24.087Z,9.58
2018-12-06T07:05:52.773Z,8.48
2018-12-06T07:08:21.499Z,11.60
2018-12-06T07:10:50.216Z,16.27
2018-12-06T07:13:18.940Z,9.75
2018-12-06T07:15:47.650Z,9.65
2018-12-06T07:18:16.389Z,10.40
2018-12-06T07:20:46.501Z,14.43
2018-12-06T07:23:15.379Z,11.60
2018-12-06T07:25:46.457Z,9.53
2018-12-06T07:28:14.793Z,11.88
2018-12-06T07:30:43.478Z,13.48
2018-12-06T07:33:14.707Z,11.50
2018-12-06T07:35:43.909Z,11.43
2018-12-06T07:38:12.605Z,8.28
2018-12-06T07:40:41.269Z,10.13
2018-12-06T07:43:09.927Z,9.93
2018-12-06T07:45:38.617Z,9.58
2018-12-06T07:48:07.318Z,8.63
2018-12-06T07:50:35.993Z,12.05
2018-12-06T07:53:04.722Z,7.58
2018-12-06T07:55:34.190Z,8.58
2018-12-06T07:58:03.082Z,11.18
2018-12-06T08:00:32.024Z,8.73
2018-12-06T08:03:00.729Z,8.00
2018-12-06T08:05:29.422Z,8.85
2018-12-06T08:07:58.167Z,11.10
2018-12-06T08:10:27.712Z,11.20
2018-12-06T08:12:56.823Z,10.35
2018-12-06T08:15:25.483Z,8.85
2018-12-06T08:17:54.204Z,11.80
2018-12-06T08:20:22.905Z,8.18
2018-12-06T08:22:51.601Z,7.40
2018-12-06T08:25:20.306Z,8.68
2018-12-06T08:27:48.986Z,10.10
2018-12-06T08:30:17.653Z,11.10
2018-12-06T08:32:46.311Z,9.80
2018-12-06T08:35:14.993Z,9.00
2018-12-06T08:37:45.941Z,13.10
2018-12-06T08:40:14.708Z,6.60
2018-12-06T08:42:45.848Z,11.30
2018-12-06T08:45:16.013Z,8.15
2018-12-06T08:47:44.697Z,9.58
2018-12-06T08:50:15.973Z,10.65
2018-12-06T08:52:44.643Z,12.95
2018-12-06T08:55:13.290Z,9.03
2018-12-06T08:57:43.417Z,12.40
2018-12-06T09:00:12.104Z,8.75
2018-12-06T09:02:40.869Z,13.10
2018-12-06T09:05:09.561Z,9.20
2018-12-06T09:07:38.234Z,7.15
2018-12-06T09:10:07.425Z,9.50
2018-12-06T09:12:36.138Z,12.47
2018-12-06T09:15:05.313Z,9.95
2018-12-06T09:17:34.039Z,8.43
2018-12-06T09:20:02.697Z,6.92
2018-12-06T09:22:31.397Z,6.85
2018-12-06T09:25:02.544Z,12.47
2018-12-06T09:27:31.257Z,9.30
2018-12-06T09:29:59.977Z,8.53
2018-12-06T09:32:28.624Z,8.40
2018-12-06T09:34:57.318Z,10.28
2018-12-06T09:37:26.043Z,6.95
2018-12-06T09:39:57.783Z,8.35
2018-12-06T09:42:26.516Z,10.63
2018-12-06T09:44:55.281Z,9.70
2018-12-06T09:47:23.962Z,7.95
2018-12-06T09:49:52.655Z,9.90
2018-12-06T09:52:21.312Z,9.85
2018-12-06T09:54:50.037Z,10.80
2018-12-06T09:57:19.110Z,14.13
2018-12-06T09:59:47.801Z,10.13
2018-12-06T10:02:16.510Z,10.90
2018-12-06T10:04:45.248Z,10.10
2018-12-06T10:07:13.892Z,9.53
2018-12-06T10:09:42.552Z,10.93
2018-12-06T10:12:11.248Z,8.73
2018-12-06T10:14:39.956Z,9.08
2018-12-06T10:17:08.657Z,13.43
2018-12-06T10:19:37.359Z,7.37
2018-12-06T10:22:06.080Z,7.65
2018-12-06T10:24:35.470Z,10.03
2018-12-06T10:27:04.191Z,10.08
2018-12-06T10:29:33.875Z,9.90
2018-12-06T10:32:03.185Z,9.03
2018-12-06T10:34:31.996Z,9.90
2018-12-06T10:37:00.669Z,8.03
2018-12-06T10:39:29.337Z,14.03
2018-12-06T10:41:58.042Z,13.70
2018-12-06T10:44:30.493Z,9.15
2018-12-06T10:46:59.196Z,12.37
2018-12-06T10:49:28.006Z,7.30
2018-12-06T10:51:56.710Z,12.10
2018-12-06T10:54:25.380Z,11.35
2018-12-06T10:56:54.106Z,10.18
2018-12-06T10:59:23.359Z,10.70
2018-12-06T11:01:57.634Z,9.68
2018-12-06T11:04:27.988Z,7.80
2018-12-06T11:06:56.693Z,9.13
2018-12-06T11:09:25.448Z,8.55
2018-12-06T11:11:54.161Z,10.03
2018-12-06T11:14:22.816Z,8.70
2018-12-06T11:16:53.172Z,7.95
2018-12-06T11:19:23.242Z,7.15
2018-12-06T11:21:51.902Z,9.78
2018-12-06T11:24:55.968Z,9.95
2018-12-06T11:27:24.653Z,7.97
2018-12-06T11:29:53.316Z,9.33
2018-12-06T11:32:22.068Z,8.05
2018-12-06T11:34:50.765Z,10.80
2018-12-06T11:37:19.432Z,10.08
2018-12-06T11:39:48.105Z,6.67
2018-12-06T11:42:16.775Z,11.75
2018-12-06T11:44:45.444Z,11.30
2018-12-06T11:47:15.199Z,10.30
2018-12-06T11:49:43.867Z,9.43
2018-12-06T11:52:12.546Z,8.85
2018-12-06T11:54:41.261Z,11.75
2018-12-06T11:57:09.917Z,10.78
2018-12-06T11:59:38.594Z,8.98
2018-12-06T12:02:10.111Z,9.10
2018-12-06T12:04:37.937Z,12.23
2018-12-06T12:07:06.612Z,8.83
2018-12-06T12:09:35.283Z,10.88
2018-12-06T12:12:04.023Z,8.30
2018-12-06T12:14:32.691Z,9.43
2018-12-06T12:17:01.383Z,9.53
2018-12-06T12:19:30.113Z,9.93
2018-12-06T12:21:58.813Z,9.30
2018-12-06T12:24:27.557Z,9.70
2018-12-06T12:26:56.267Z,9.18
2018-12-06T12:29:24.953Z,15.08
2018-12-06T12:31:53.640Z,10.53
2018-12-06T12:34:22.607Z,10.93
2018-12-06T12:36:51.276Z,9.50
2018-12-06T12:39:20.008Z,11.10
2018-12-06T12:41:48.738Z,10.03
2018-12-06T12:44:18.032Z,10.03
2018-12-06T12:46:46.765Z,11.50
2018-12-06T12:49:15.460Z,9.90
2018-12-06T12:51:44.172Z,8.98
2018-12-06T12:54:12.861Z,14.38
2018-12-06T12:56:41.526Z,10.53
2018-12-06T12:59:10.225Z,9.18
2018-12-06T13:01:38.936Z,11.20
2018-12-06T13:04:07.598Z,9.95
2018-12-06T13:06:36.346Z,11.73
2018-12-06T13:09:07.217Z,10.93
2018-12-06T13:11:35.916Z,8.13
2018-12-06T13:14:04.614Z,10.38
2018-12-06T13:16:33.328Z,13.40
2018-12-06T13:19:02.011Z,10.72
2018-12-06T13:21:31.591Z,9.18
2018-12-06T13:24:00.346Z,11.90
2018-12-06T13:26:29.113Z,10.68
2018-12-06T13:28:57.837Z,9.70
2018-12-06T13:31:26.496Z,11.43
2018-12-06T13:33:55.188Z,9.58
2018-12-06T13:36:23.872Z,13.20
2018-12-06T13:38:52.539Z,11.95
2018-12-06T13:41:21.233Z,12.93
2018-12-06T13:43:49.940Z,10.40
2018-12-06T13:46:18.705Z,9.73
2018-12-06T13:48:47.372Z,13.90
2018-12-06T13:51:16.062Z,15.18
2018-12-06T13:53:44.764Z,13.60
2018-12-06T13:56:13.678Z,13.90
2018-12-06T13:58:42.413Z,15.65
2018-12-06T14:01:11.725Z,15.60
2018-12-06T14:03:40.822Z,12.13
2018-12-06T14:06:09.752Z,8.73
2018-12-06T14:08:38.511Z,18.23
2018-12-06T14:11:07.218Z,9.88
2018-12-06T14:13:35.997Z,10.30
2018-12-06T14:16:10.359Z,15.15
2018-12-06T14:18:35.436Z,12.53
2018-12-06T14:21:04.831Z,10.55
2018-12-06T14:23:33.538Z,11.70
2018-12-06T14:26:02.233Z,14.00
2018-12-06T14:28:30.952Z,11.35
2018-12-06T14:30:59.651Z,12.28
2018-12-06T14:33:28.378Z,14.38
2018-12-06T14:35:57.267Z,16.55
2018-12-06T14:38:25.993Z,16.87
2018-12-06T14:40:54.697Z,13.65
2018-12-06T14:43:23.503Z,13.32
2018-12-06T14:45:52.598Z,14.30
2018-12-06T14:48:21.393Z,14.00
2018-12-06T14:50:50.948Z,14.60
2018-12-06T14:53:20.068Z,15.13
2018-12-06T14:55:49.435Z,15.90
2018-12-06T14:58:18.147Z,12.55
2018-12-06T15:00:46.841Z,14.23
2018-12-06T15:03:15.580Z,11.80
2018-12-06T15:05:44.272Z,10.13
2018-12-06T15:08:12.932Z,9.25
2018-12-06T15:10:41.613Z,13.38
2018-12-06T15:13:10.337Z,13.58
2018-12-06T15:15:39.048Z,10.93
2018-12-06T15:18:07.733Z,11.73
2018-12-06T15:20:36.453Z,14.47
2018-12-06T15:23:05.215Z,12.78
2018-12-06T15:25:41.536Z,15.90
2018-12-06T15:28:04.593Z,15.48
2018-12-06T15:30:33.325Z,10.63
2018-12-06T15:33:02.021Z,12.03
2018-12-06T15:35:30.798Z,10.70
2018-12-06T15:37:59.470Z,15.20
2018-12-06T15:40:28.164Z,15.88
2018-12-06T15:42:56.943Z,11.22
2018-12-06T15:45:25.609Z,13.65
2018-12-06T15:47:54.336Z,15.72
2018-12-06T15:50:22.991Z,14.20
2018-12-06T15:52:51.667Z,17.77
2018-12-06T15:55:20.328Z,18.40
2018-12-06T15:57:49.077Z,17.12
2018-12-06T16:00:17.813Z,15.45
2018-12-06T16:02:46.753Z,19.00
2018-12-06T16:05:15.484Z,15.85
2018-12-06T16:07:44.196Z,21.15
2018-12-06T16:10:13.033Z,25.20
2018-12-06T16:12:41.712Z,21.35
2018-12-06T16:15:10.389Z,21.73
2018-12-06T16:17:39.061Z,24.23
2018-12-06T16:20:08.781Z,24.52
2018-12-06T16:22:37.469Z,21.10
2018-12-06T16:25:06.305Z,23.70
2018-12-06T16:27:35.809Z,30.90
2018-12-06T16:30:05.986Z,23.90
2018-12-06T16:32:34.660Z,29.40
2018-12-06T16:35:03.350Z,26.87
2018-12-06T16:37:32.055Z,26.17
2018-12-06T16:40:00.736Z,25.43
2018-12-06T16:42:29.498Z,31.85
2018-12-06T16:44:58.175Z,30.35
2018-12-06T16:47:26.843Z,29.65
2018-12-06T16:49:55.535Z,28.30
2018-12-06T16:52:24.240Z,27.55
2018-12-06T16:54:52.984Z,30.92
2018-12-06T16:57:21.644Z,28.17
2018-12-06T16:59:50.381Z,30.23
2018-12-06T17:02:19.296Z,29.48
2018-12-06T17:04:47.968Z,29.90
2018-12-06T17:07:16.753Z,31.00
2018-12-06T17:09:45.757Z,28.47
2018-12-06T17:12:14.460Z,30.90
2018-12-06T17:14:43.262Z,29.02
2018-12-06T17:17:37.551Z,29.80
2018-12-06T17:20:07.163Z,30.20
2018-12-06T17:22:35.837Z,29.65
2018-12-06T17:25:05.332Z,32.42
2018-12-06T17:27:34.030Z,36.58
2018-12-06T17:30:02.747Z,32.05
2018-12-06T17:32:31.627Z,29.48
2018-12-06T17:35:00.361Z,31.07
2018-12-06T17:37:29.105Z,29.77
2018-12-06T17:39:57.768Z,31.60
2018-12-06T17:42:26.477Z,34.05
2018-12-06T17:44:55.185Z,32.45
2018-12-06T17:47:23.914Z,37.80
2018-12-06T17:49:52.586Z,32.60
2018-12-06T17:52:21.406Z,30.40
2018-12-06T17:54:50.145Z,34.53
2018-12-06T17:57:18.913Z,36.53
2018-12-06T17:59:47.660Z,32.80
2018-12-06T18:02:16.339Z,29.98
2018-12-06T18:04:45.021Z,34.30
2018-12-06T18:07:13.776Z,26.70
2018-12-06T18:09:44.267Z,31.62
2018-12-06T18:12:13.037Z,32.55
2018-12-06T18:14:42.278Z,32.50
2018-12-06T18:17:11.031Z,29.55
2018-12-06T18:19:39.717Z,32.20
2018-12-06T18:22:08.441Z,30.48
2018-12-06T18:24:37.156Z,30.77
2018-12-06T18:27:05.844Z,32.17
2018-12-06T18:29:34.572Z,30.65
2018-12-06T18:32:03.236Z,29.72
2018-12-06T18:34:31.932Z,32.53
2018-12-06T18:37:00.660Z,34.15
2018-12-06T18:39:30.280Z,31.50
2018-12-06T18:41:58.975Z,32.13
2018-12-06T18:44:27.663Z,28.95
2018-12-06T18:46:56.672Z,31.55
2018-12-06T18:49:25.370Z,34.67
2018-12-06T18:51:54.123Z,31.17
2018-12-06T18:54:22.855Z,32.73
2018-12-06T18:56:51.538Z,28.38
2018-12-06T18:59:20.228Z,29.50
2018-12-06T19:01:49.006Z,33.80
2018-12-06T19:04:18.095Z,31.85
2018-12-06T19:06:46.868Z,31.12
2018-12-06T19:09:15.603Z,36.48
2018-12-06T19:11:44.323Z,29.48
2018-12-06T19:14:13.110Z,35.65
2018-12-06T19:16:41.885Z,33.05
2018-12-06T19:19:10.567Z,32.23
2018-12-06T19:21:39.305Z,34.05
2018-12-06T19:24:08.022Z,30.25
2018-12-06T19:26:36.752Z,33.20
2018-12-06T19:29:05.495Z,32.78
2018-12-06T19:31:34.263Z,29.92
2018-12-06T19:34:02.997Z,35.40
2018-12-06T19:36:31.741Z,33.05
2018-12-06T19:39:00.502Z,29.95
2018-12-06T19:41:29.264Z,34.92
2018-12-06T19:43:57.952Z,33.50
2018-12-06T19:46:26.644Z,31.37
2018-12-06T19:48:55.421Z,32.80
2018-12-06T19:51:24.129Z,32.88
2018-12-06T19:53:53.436Z,38.55
2018-12-06T19:56:22.497Z,31.77
2018-12-06T19:58:51.171Z,33.90
2018-12-06T20:01:19.895Z,35.35
2018-12-06T20:03:48.584Z,31.05
2018-12-06T20:06:17.432Z,32.10
2018-12-06T20:08:46.221Z,30.92
2018-12-06T20:11:14.991Z,29.85
2018-12-06T20:13:43.693Z,33.35
2018-12-06T20:16:12.427Z,30.82
2018-12-06T20:18:41.115Z,32.48
2018-12-06T20:21:09.819Z,33.58
2018-12-06T20:23:38.508Z,30.10
2018-12-06T20:26:07.188Z,32.08
2018-12-06T20:28:36.049Z,31.27
2018-12-06T20:31:04.757Z,32.88
2018-12-06T20:33:33.485Z,32.13
2018-12-06T20:36:02.169Z,27.17
2018-12-06T20:38:30.941Z,31.07
2018-12-06T20:41:00.490Z,33.10
2018-12-06T20:46:34.226Z,32.98
2018-12-06T20:49:03.146Z,37.05
2018-12-06T20:51:33.427Z,36.40
2018-12-06T20:54:02.546Z,42.73
2018-12-06T20:56:31.379Z,37.20
2018-12-06T20:59:00.191Z,41.48
2018-12-06T21:01:28.899Z,39.95
2018-12-06T21:03:57.580Z,44.20
2018-12-06T21:06:26.313Z,41.23
2018-12-06T21:08:55.013Z,44.60
2018-12-06T21:11:23.683Z,43.85
2018-12-06T21:13:52.406Z,48.95
2018-12-06T21:16:21.420Z,49.58
2018-12-06T21:18:50.112Z,39.35
2018-12-06T21:21:19.126Z,43.50
2018-12-06T21:23:47.800Z,43.38
2018-12-06T21:26:16.501Z,42.17
2018-12-06T21:28:45.214Z,40.85
2018-12-06T21:31:13.943Z,37.58
2018-12-06T21:33:42.655Z,38.30
2018-12-06T21:36:11.420Z,38.53
2018-12-06T21:38:40.140Z,35.30
2018-12-06T21:41:08.852Z,35.65
2018-12-06T21:43:37.571Z,35.88
2018-12-06T21:46:06.300Z,34.10
2018-12-06T21:48:34.997Z,33.95
2018-12-06T21:51:03.745Z,35.43
2018-12-06T21:53:32.519Z,41.55
2018-12-06T21:56:01.246Z,37.90
2018-12-06T21:58:29.963Z,34.78
2018-12-06T22:00:58.704Z,39.35
2018-12-06T22:03:27.459Z,36.88
2018-12-06T22:05:56.157Z,37.93
2018-12-06T22:08:24.839Z,36.40
2018-12-06T22:10:53.557Z,36.70
2018-12-06T22:13:22.257Z,39.38
2018-12-06T22:15:50.994Z,43.48
2018-12-06T22:18:19.724Z,38.85
2018-12-06T22:20:48.424Z,35.40
2018-12-06T22:23:17.157Z,44.70
2018-12-06T22:25:45.914Z,35.28
2018-12-06T22:28:14.589Z,37.10
2018-12-06T22:30:43.282Z,40.52
2018-12-06T22:33:12.009Z,36.98
2018-12-06T22:35:40.690Z,40.85
2018-12-06T22:38:09.534Z,40.05
2018-12-06T22:40:38.297Z,35.52
2018-12-06T22:43:07.030Z,38.98
2018-12-06T22:45:57.067Z,37.15
2018-12-06T22:48:25.766Z,37.28
2018-12-06T22:50:54.493Z,33.95
2018-12-06T22:53:23.163Z,32.98
2018-12-06T22:55:51.887Z,37.55
2018-12-06T22:58:20.599Z,32.05
2018-12-06T23:00:51.169Z,35.23
2018-12-06T23:03:19.893Z,31.97
2018-12-06T23:05:48.620Z,33.05
2018-12-06T23:08:17.333Z,34.63
2018-12-06T23:10:46.058Z,31.33
2018-12-06T23:13:14.788Z,33.15
2018-12-06T23:15:43.565Z,30.70
2018-12-06T23:18:12.311Z,31.27
2018-12-06T23:20:41.035Z,34.70
2018-12-06T23:23:09.763Z,31.77
2018-12-06T23:25:38.473Z,32.20
2018-12-06T23:28:07.196Z,34.43
2018-12-06T23:30:35.894Z,31.17
2018-12-06T23:33:04.613Z,32.13
2018-12-06T23:35:33.303Z,34.10
2018-12-06T23:38:01.984Z,32.00
2018-12-06T23:40:30.660Z,31.93
2018-12-06T23:42:59.340Z,36.25
2018-12-06T23:45:28.030Z,30.85
2018-12-06T23:47:56.696Z,30.70
2018-12-06T23:50:25.426Z,29.70
2018-12-06T23:52:54.881Z,32.42
2018-12-06T23:55:23.604Z,33.40
2018-12-06T23:57:52.282Z,29.02
